Avalon, California
Current Conditions -  °F | °C
As of 6:21 PM on Saturday 20 Dec 2014 (Local Time) from KAVX Reporting Station
Scattered Clouds Scattered Clouds  
Wind Chill: 12°   Ceiling: Unl
Heat Index: 12°   Visibility: 10mi
Dew Point: 12°   Wind: 9mph
Humidity: 100%   Direction: 270°W
Pressure: 30.15"   Gusts: NA
Location:  33.34°N, 118.33°W
Report Text: KAVX 210221Z AUTO 27008KT 10SM SCT002 SCT010 12/12 A3015 RMK AO2 T01170117
Loading
Personal Weather Stations






























Interactive Weather Map New forecast layout! Learn more

10-Day Weather Forecast

Advertisements
Track Severe Weather on mobile